map of MAH home
MAH - Airport
Location
City:  Mahón, Menorca, Balearic Islands, Spain
Near (Alt.):Maó
Name:Menorca Airport
ICAO:LEMH
IATA:MAH

Details
Type:Airport (Aerodrome, Airfield)
Use:Public/Civil
Latitude:39°51'45"N (39.862597)
Longitude:4°13'07"E (4.218647)
Datum:WGS 1984
Elevation:298 ft (91 m)
Variation:1.33°E (WMM2015 magnetic declination)
0.11° annual change
Runways:2
Longest:7710 × 148 ft (2350 × 45 m), paved

Time
Time Zone:UTC+1 (DST+2)
Local Time:

Weather
METAR:LEMH 162030Z 36013KT 320V030 9999 FEW020 08/02 Q1020
TAF:LEMH 162000Z 1621/1721 33012KT 9999 SCT030 TX13/1712Z TN08/1706Z
TEMPO 1705/1715 35022G36KT PROB30
TEMPO 1621/1715 SHRA SCT025TCU SCT030

Related Locations
Nearby:
Farthest:CHT: 12155 mi / 19562 km
Waitangi [Tuuta], CIT, NZ

Find:

   beyond  
but within

Other Information
Maps:
NOTAMs:
Links:
Sources:

  
flag of Spain
flag of Balearic Islands
  

Airport Diagram

Airport diagram for MAH

Larger airport diagram (OBSOLETE) from NGA

Sectional Chart

Flight Planning
at skyvector.com

Satellite Image

Google Maps Satellite view

 

Copyright © 2004-2017 Karl L. Swartz. All rights reserved.
The Great Circle Mapper name and logo are trademarks of the Great Circle Mapper.
All other trademarks mentioned herein belong to their respective owners.
Please see credits for attibutions and further copyright information.

  Follow gcmap on Facebook Follow gcmap on Twitter Follow gcmap on Google+ GCmap on LinkedIn

hCard Microformat

Geo Microformat